createdAt,value
2022-11-10T00:00:43.204Z,98530.96
2022-11-10T00:02:04.888Z,98535.59
2022-11-10T00:03:28.328Z,98536.02
2022-11-10T00:04:48.846Z,98537.63
2022-11-10T00:06:10.785Z,98537.15
2022-11-10T00:07:31.191Z,98539.41
2022-11-10T00:08:51.548Z,98540.39
2022-11-10T00:10:12.191Z,98538.02
2022-11-10T00:11:33.289Z,98535.98
2022-11-10T00:12:53.728Z,98535.76
2022-11-10T00:14:32.714Z,98540.13
2022-11-10T00:16:12.502Z,98542.92
2022-11-10T00:17:35.766Z,98541.83
2022-11-10T00:18:56.135Z,98538.06
2022-11-10T00:20:16.264Z,98536.80
2022-11-10T00:21:37.806Z,98538.90
2022-11-10T00:22:58.039Z,98539.88
2022-11-10T00:24:18.724Z,98541.00
2022-11-10T00:25:39.017Z,98538.77
2022-11-10T00:26:59.344Z,98541.98
2022-11-10T00:28:19.599Z,98544.71
2022-11-10T00:29:40.221Z,98543.64
2022-11-10T00:31:06.097Z,98540.18
2022-11-10T00:32:26.958Z,98539.20
2022-11-10T00:33:47.087Z,98538.48
2022-11-10T00:35:08.036Z,98540.89
2022-11-10T00:36:28.279Z,98537.55
2022-11-10T00:37:49.715Z,98534.86
2022-11-10T00:39:11.810Z,98535.98
2022-11-10T00:40:32.001Z,98534.82
2022-11-10T00:41:55.701Z,98533.46
2022-11-10T00:43:16.240Z,98534.98
2022-11-10T00:44:37.314Z,98540.27
2022-11-10T00:45:58.392Z,98538.16
2022-11-10T00:47:18.983Z,98535.22
2022-11-10T00:48:39.449Z,98535.14
2022-11-10T00:50:00.086Z,98533.34
2022-11-10T00:51:28.658Z,98535.06
2022-11-10T00:52:49.113Z,98535.14
2022-11-10T00:54:09.515Z,98532.73
2022-11-10T00:55:29.698Z,98536.65
2022-11-10T00:56:49.927Z,98532.41
2022-11-10T00:58:10.094Z,98530.00
2022-11-10T00:59:30.461Z,98535.33
2022-11-10T01:00:51.183Z,98536.57
2022-11-10T01:02:11.630Z,98535.35
2022-11-10T01:03:33.430Z,98534.29
2022-11-10T01:04:53.555Z,98532.98
2022-11-10T01:06:16.612Z,98536.98
2022-11-10T01:07:37.032Z,98537.67
2022-11-10T01:08:57.213Z,98542.82
2022-11-10T01:10:17.707Z,98542.23
2022-11-10T01:11:38.434Z,98546.19
2022-11-10T01:12:59.514Z,98541.23
2022-11-10T01:14:20.363Z,98540.16
2022-11-10T01:15:42.472Z,98541.13
2022-11-10T01:17:03.028Z,98541.14
2022-11-10T01:18:23.626Z,98536.43
2022-11-10T01:19:43.923Z,98535.13
2022-11-10T01:21:05.822Z,98535.07
2022-11-10T01:22:25.824Z,98532.83
2022-11-10T01:23:47.668Z,98531.80
2022-11-10T01:25:08.561Z,98532.73
2022-11-10T01:26:29.107Z,98534.00
2022-11-10T01:27:50.683Z,98531.25
2022-11-10T01:29:10.897Z,98530.52
2022-11-10T01:30:31.160Z,98534.46
2022-11-10T01:31:51.352Z,98536.94
2022-11-10T01:33:11.848Z,98540.84
2022-11-10T01:34:32.745Z,98540.73
2022-11-10T01:35:53.518Z,98543.16
2022-11-10T01:37:14.397Z,98541.17
2022-11-10T01:38:37.791Z,98544.29
2022-11-10T01:39:58.320Z,98546.84
2022-11-10T01:41:18.977Z,98546.08
2022-11-10T01:42:49.421Z,98549.21
2022-11-10T01:44:15.601Z,98549.05
2022-11-10T01:45:48.650Z,98551.50
2022-11-10T01:47:09.315Z,98547.80
2022-11-10T01:48:45.262Z,98547.14
2022-11-10T01:50:06.719Z,98547.27
2022-11-10T01:51:38.805Z,98549.11
2022-11-10T01:53:05.155Z,98548.09
2022-11-10T01:54:29.614Z,98548.55
2022-11-10T01:55:51.589Z,98548.71
2022-11-10T01:57:15.312Z,98550.86
2022-11-10T01:58:43.458Z,98548.60
2022-11-10T02:00:05.150Z,98551.34
2022-11-10T02:01:26.079Z,98554.19
2022-11-10T02:02:52.806Z,98554.81
2022-11-10T02:04:16.380Z,98557.02
2022-11-10T02:05:36.613Z,98553.73
2022-11-10T02:06:58.206Z,98556.88
2022-11-10T02:08:19.584Z,98557.04
2022-11-10T02:09:40.619Z,98558.45
2022-11-10T02:11:01.075Z,98560.33
2022-11-10T02:12:37.216Z,98556.02
2022-11-10T02:13:59.011Z,98555.27
2022-11-10T02:15:19.411Z,98557.98
2022-11-10T02:16:40.334Z,98560.60
2022-11-10T02:18:00.780Z,98559.14
2022-11-10T02:19:24.484Z,98564.75
2022-11-10T02:20:46.650Z,98571.14
2022-11-10T02:22:07.081Z,98580.50
2022-11-10T02:23:30.238Z,98586.73
2022-11-10T02:24:50.537Z,98587.57
2022-11-10T02:26:12.744Z,98593.38
2022-11-10T02:27:33.497Z,98591.45
2022-11-10T02:28:53.994Z,98592.58
2022-11-10T02:30:15.998Z,98595.11
2022-11-10T02:31:36.477Z,98593.27
2022-11-10T02:32:56.982Z,98591.52
2022-11-10T02:34:17.788Z,98591.48
2022-11-10T02:35:37.908Z,98595.62
2022-11-10T02:36:58.266Z,98594.79
2022-11-10T02:38:18.764Z,98594.73
2022-11-10T02:39:39.392Z,98598.77
2022-11-10T02:40:59.765Z,98603.82
2022-11-10T02:42:20.218Z,98606.09
2022-11-10T02:43:40.890Z,98611.72
2022-11-10T02:45:01.071Z,98613.23
2022-11-10T02:46:21.541Z,98609.71
2022-11-10T02:47:42.063Z,98609.19
2022-11-10T02:49:02.864Z,98609.94
2022-11-10T02:50:23.430Z,98609.38
2022-11-10T02:51:43.780Z,98610.11
2022-11-10T02:53:04.610Z,98608.81
2022-11-10T02:54:25.056Z,98609.67
2022-11-10T02:55:45.467Z,98607.04
2022-11-10T02:57:05.518Z,98607.09
2022-11-10T02:58:25.981Z,98605.21
2022-11-10T02:59:46.349Z,98604.00
2022-11-10T03:01:06.995Z,98603.20
2022-11-10T03:02:32.107Z,98608.80
2022-11-10T03:03:52.645Z,98609.59
2022-11-10T03:05:13.292Z,98615.83
2022-11-10T03:06:34.001Z,98616.25
2022-11-10T03:07:59.631Z,98613.60
2022-11-10T03:09:19.998Z,98616.45
2022-11-10T03:10:40.610Z,98617.40
2022-11-10T03:12:01.058Z,98612.28
2022-11-10T03:13:21.578Z,98610.73
2022-11-10T03:14:42.128Z,98611.91
2022-11-10T03:16:02.767Z,98616.02
2022-11-10T03:17:23.426Z,98617.02
2022-11-10T03:18:43.840Z,98612.73
2022-11-10T03:20:05.229Z,98610.86
2022-11-10T03:21:25.669Z,98613.95
2022-11-10T03:22:47.105Z,98615.19
2022-11-10T03:24:07.637Z,98615.90
2022-11-10T03:25:27.984Z,98618.42
2022-11-10T03:26:48.676Z,98620.15
2022-11-10T03:28:09.498Z,98617.14
2022-11-10T03:29:29.960Z,98621.17
2022-11-10T03:30:51.241Z,98622.85
2022-11-10T03:32:11.711Z,98622.98
2022-11-10T03:33:32.273Z,98626.44
2022-11-10T03:34:53.064Z,98627.47
2022-11-10T03:36:13.739Z,98625.45
2022-11-10T03:37:34.246Z,98627.33
2022-11-10T03:38:54.566Z,98631.33
2022-11-10T03:40:14.945Z,98634.10
2022-11-10T03:41:35.049Z,98631.53
2022-11-10T03:42:55.550Z,98631.42
2022-11-10T03:44:16.094Z,98626.96
2022-11-10T03:45:36.449Z,98626.13
2022-11-10T03:46:56.716Z,98629.57
2022-11-10T03:48:17.251Z,98628.60
2022-11-10T03:49:37.780Z,98630.38
2022-11-10T03:50:58.118Z,98631.73
2022-11-10T03:52:20.924Z,98631.68
2022-11-10T03:53:41.307Z,98639.92
2022-11-10T03:55:03.457Z,98640.57
2022-11-10T03:56:24.313Z,98641.30
2022-11-10T03:57:45.181Z,98643.55
2022-11-10T03:59:05.819Z,98643.02
2022-11-10T04:00:26.491Z,98649.90
2022-11-10T04:01:46.662Z,98649.14
2022-11-10T04:03:07.314Z,98647.73
2022-11-10T04:04:46.417Z,98649.41
2022-11-10T04:06:25.599Z,98649.98
2022-11-10T04:08:04.913Z,98647.46
2022-11-10T04:09:25.290Z,98646.98
2022-11-10T04:10:45.989Z,98651.83
2022-11-10T04:12:25.288Z,98654.75
2022-11-10T04:14:04.041Z,98652.67
2022-11-10T04:15:42.624Z,98653.52
2022-11-10T04:17:03.951Z,98653.55
2022-11-10T04:18:26.956Z,98655.06
2022-11-10T04:19:47.034Z,98655.39
2022-11-10T04:21:07.115Z,98652.27
2022-11-10T04:22:45.548Z,98653.02
2022-11-10T04:24:06.607Z,98653.14
2022-11-10T04:25:26.938Z,98652.82
2022-11-10T04:26:48.793Z,98657.85
2022-11-10T04:28:08.993Z,98655.75
2022-11-10T04:29:29.077Z,98656.02
2022-11-10T04:30:49.530Z,98660.08
2022-11-10T04:32:09.861Z,98658.27
2022-11-10T04:33:30.500Z,98661.33
2022-11-10T04:34:51.052Z,98657.24
2022-11-10T04:36:14.338Z,98659.23
2022-11-10T04:37:35.048Z,98659.54
2022-11-10T04:38:56.275Z,98666.14
2022-11-10T04:40:16.833Z,98662.69
2022-11-10T04:41:38.036Z,98662.83
2022-11-10T04:42:58.345Z,98669.52
2022-11-10T04:44:18.791Z,98669.20
2022-11-10T04:45:39.349Z,98673.29
2022-11-10T04:46:59.919Z,98671.87
2022-11-10T04:48:20.168Z,98676.54
2022-11-10T04:49:40.581Z,98678.80
2022-11-10T04:51:05.997Z,98678.05
2022-11-10T04:52:26.439Z,98676.39
2022-11-10T04:53:46.669Z,98677.48
2022-11-10T04:55:07.854Z,98675.45
2022-11-10T04:56:29.306Z,98676.57
2022-11-10T04:57:49.460Z,98678.86
2022-11-10T04:59:09.596Z,98680.98
2022-11-10T05:00:30.239Z,98681.45
2022-11-10T05:01:50.478Z,98684.27
2022-11-10T05:03:12.457Z,98690.86
2022-11-10T05:04:32.824Z,98690.52
2022-11-10T05:05:52.952Z,98685.98
2022-11-10T05:07:13.066Z,98683.84
2022-11-10T05:08:33.869Z,98686.06
2022-11-10T05:09:53.955Z,98682.66
2022-11-10T05:11:15.308Z,98686.84
2022-11-10T05:12:35.671Z,98686.35
2022-11-10T05:13:55.741Z,98688.41
2022-11-10T05:15:15.977Z,98683.22
2022-11-10T05:16:37.729Z,98691.83
2022-11-10T05:17:58.318Z,98687.77
2022-11-10T05:19:18.687Z,98691.40
2022-11-10T05:20:38.901Z,98695.01
2022-11-10T05:21:59.613Z,98697.45
2022-11-10T05:23:38.743Z,98700.66
2022-11-10T05:24:59.037Z,98699.98
2022-11-10T05:26:19.735Z,98705.36
2022-11-10T05:27:40.292Z,98708.66
2022-11-10T05:29:00.554Z,98706.10
2022-11-10T05:30:20.894Z,98707.24
2022-11-10T05:31:41.162Z,98711.98
2022-11-10T05:33:02.753Z,98713.75
2022-11-10T05:34:23.279Z,98718.23
2022-11-10T05:35:44.308Z,98715.61
2022-11-10T05:37:04.921Z,98720.15
2022-11-10T05:38:25.847Z,98721.38
2022-11-10T05:39:46.186Z,98723.48
2022-11-10T05:41:06.485Z,98725.48
2022-11-10T05:42:27.532Z,98723.77
2022-11-10T05:43:49.037Z,98727.12
2022-11-10T05:45:09.951Z,98728.56
2022-11-10T05:46:31.953Z,98728.67
2022-11-10T05:47:52.946Z,98733.09
2022-11-10T05:49:13.184Z,98734.80
2022-11-10T05:50:34.414Z,98736.15
2022-11-10T05:51:54.928Z,98741.80
2022-11-10T05:53:15.185Z,98746.54
2022-11-10T05:54:35.593Z,98746.34
2022-11-10T05:55:56.066Z,98745.27
2022-11-10T05:57:16.277Z,98750.79
2022-11-10T05:58:36.583Z,98755.56
2022-11-10T05:59:57.054Z,98753.41
2022-11-10T06:01:17.521Z,98760.22
2022-11-10T06:02:37.712Z,98763.15
2022-11-10T06:03:58.138Z,98765.09
2022-11-10T06:05:18.516Z,98765.48
2022-11-10T06:06:38.764Z,98771.33
2022-11-10T06:08:00.289Z,98768.91
2022-11-10T06:09:20.930Z,98765.27
2022-11-10T06:10:41.708Z,98768.46
2022-11-10T06:12:03.454Z,98773.90
2022-11-10T06:13:23.821Z,98776.06
2022-11-10T06:14:44.681Z,98777.27
2022-11-10T06:16:05.553Z,98776.48
2022-11-10T06:17:26.383Z,98779.73
2022-11-10T06:18:46.655Z,98786.86
2022-11-10T06:20:07.397Z,98784.39
2022-11-10T06:21:27.602Z,98787.61
2022-11-10T06:23:01.387Z,98789.06
2022-11-10T06:24:21.688Z,98792.38
2022-11-10T06:25:42.354Z,98791.58
2022-11-10T06:27:02.515Z,98792.77
2022-11-10T06:28:22.806Z,98795.32
2022-11-10T06:29:42.757Z,98797.10
2022-11-10T06:31:02.903Z,98796.09
2022-11-10T06:32:23.233Z,98797.00
2022-11-10T06:33:43.832Z,98796.73
2022-11-10T06:35:04.259Z,98799.77
2022-11-10T06:36:25.256Z,98798.25
2022-11-10T06:37:46.165Z,98801.42
2022-11-10T06:39:06.796Z,98798.18
2022-11-10T06:40:27.239Z,98802.70
2022-11-10T06:41:47.463Z,98804.55
2022-11-10T06:43:08.022Z,98809.52
2022-11-10T06:44:28.244Z,98810.75
2022-11-10T06:45:48.658Z,98809.90
2022-11-10T06:47:08.763Z,98812.77
2022-11-10T06:48:29.145Z,98816.98
2022-11-10T06:49:49.162Z,98814.41
2022-11-10T06:51:09.332Z,98811.02
2022-11-10T06:52:31.776Z,98815.13
2022-11-10T06:53:52.271Z,98821.89
2022-11-10T06:55:12.919Z,98828.64
2022-11-10T06:56:33.003Z,98830.71
2022-11-10T06:57:53.465Z,98828.83
2022-11-10T06:59:14.049Z,98838.38
2022-11-10T07:00:34.758Z,98835.42
2022-11-10T07:01:55.259Z,98837.23
2022-11-10T07:03:16.584Z,98842.31
2022-11-10T07:04:36.949Z,98840.02
2022-11-10T07:05:58.181Z,98849.34
2022-11-10T07:07:18.459Z,98848.48
2022-11-10T07:08:39.241Z,98848.80
2022-11-10T07:10:04.106Z,98849.75
2022-11-10T07:11:27.056Z,98853.59
2022-11-10T07:12:47.471Z,98853.95
2022-11-10T07:14:08.044Z,98855.44
2022-11-10T07:15:28.587Z,98858.04
2022-11-10T07:16:48.976Z,98860.20
2022-11-10T07:18:09.634Z,98862.80
2022-11-10T07:19:30.006Z,98865.41
2022-11-10T07:20:50.240Z,98866.02
2022-11-10T07:22:11.464Z,98872.29
2022-11-10T07:23:33.608Z,98866.36
2022-11-10T07:24:53.603Z,98865.52
2022-11-10T07:26:14.300Z,98867.61
2022-11-10T07:27:34.360Z,98874.55
2022-11-10T07:28:54.987Z,98876.69
2022-11-10T07:30:15.558Z,98879.30
2022-11-10T07:31:35.923Z,98880.77
2022-11-10T07:33:05.428Z,98883.21
2022-11-10T07:34:25.887Z,98884.15
2022-11-10T07:36:04.782Z,98883.54
2022-11-10T07:37:24.760Z,98886.20
2022-11-10T07:38:45.038Z,98882.02
2022-11-10T07:40:06.095Z,98888.09
2022-11-10T07:41:26.751Z,98883.73
2022-11-10T07:42:46.867Z,98886.98
2022-11-10T07:44:07.235Z,98891.89
2022-11-10T07:45:28.974Z,98890.58
2022-11-10T07:46:49.723Z,98890.75
2022-11-10T07:48:10.401Z,98890.65
2022-11-10T07:49:30.558Z,98896.17
2022-11-10T07:50:50.985Z,98897.52
2022-11-10T07:52:11.224Z,98895.86
2022-11-10T07:53:32.156Z,98896.80
2022-11-10T07:54:52.507Z,98895.24
2022-11-10T07:56:12.658Z,98899.63
2022-11-10T07:57:34.030Z,98906.06
2022-11-10T07:58:54.561Z,98908.41
2022-11-10T08:00:16.703Z,98905.58
2022-11-10T08:01:37.078Z,98909.91
2022-11-10T08:03:26.952Z,98914.09
2022-11-10T08:04:47.286Z,98914.45
2022-11-10T08:06:08.433Z,98920.47
2022-11-10T08:07:29.015Z,98919.72
2022-11-10T08:08:49.437Z,98924.15
2022-11-10T08:10:10.035Z,98924.33
2022-11-10T08:11:30.398Z,98928.13
2022-11-10T08:12:58.217Z,98926.35
2022-11-10T08:14:18.784Z,98933.10
2022-11-10T08:15:40.291Z,98933.94
2022-11-10T08:17:00.627Z,98933.70
2022-11-10T08:18:23.391Z,98933.48
2022-11-10T08:19:43.848Z,98939.36
2022-11-10T08:21:05.691Z,98942.81
2022-11-10T08:22:25.722Z,98943.31
2022-11-10T08:23:46.080Z,98947.70
2022-11-10T08:25:06.691Z,98944.42
2022-11-10T08:26:26.900Z,98946.38
2022-11-10T08:27:47.077Z,98947.20
2022-11-10T08:29:07.621Z,98949.60
2022-11-10T08:30:29.570Z,98952.03
2022-11-10T08:31:50.008Z,98957.86
2022-11-10T08:33:13.080Z,98961.60
2022-11-10T08:34:33.477Z,98960.64
2022-11-10T08:35:53.890Z,98962.30
2022-11-10T08:37:14.555Z,98963.87
2022-11-10T08:38:34.957Z,98966.16
2022-11-10T08:39:55.442Z,98965.73
2022-11-10T08:41:16.231Z,98969.53
2022-11-10T08:42:36.714Z,98974.45
2022-11-10T08:43:57.234Z,98974.38
2022-11-10T08:45:17.559Z,98976.84
2022-11-10T08:46:37.675Z,98979.81
2022-11-10T08:47:58.961Z,98985.56
2022-11-10T08:49:18.972Z,98990.35
2022-11-10T08:50:39.846Z,98987.62
2022-11-10T08:51:59.972Z,98988.49
2022-11-10T08:53:23.862Z,98989.96
2022-11-10T08:54:44.382Z,98992.68
2022-11-10T08:56:04.681Z,98991.35
2022-11-10T08:57:24.804Z,98995.40
2022-11-10T08:58:52.833Z,98993.79
2022-11-10T09:00:15.142Z,98997.53
2022-11-10T09:01:35.505Z,99003.11
2022-11-10T09:03:02.804Z,99000.60
2022-11-10T09:04:23.430Z,99004.92
2022-11-10T09:05:44.363Z,99001.65
2022-11-10T09:07:04.911Z,99000.59
2022-11-10T09:08:25.229Z,99004.27
2022-11-10T09:10:01.408Z,99004.84
2022-11-10T09:11:26.080Z,99007.09
2022-11-10T09:12:46.912Z,99012.80
2022-11-10T09:14:07.133Z,99016.06
2022-11-10T09:15:28.150Z,99013.27
2022-11-10T09:16:48.198Z,99013.08
2022-11-10T09:18:11.017Z,99008.91
2022-11-10T09:19:31.464Z,99015.20
2022-11-10T09:20:51.609Z,99014.45
2022-11-10T09:22:11.730Z,99015.97
2022-11-10T09:23:32.756Z,99015.33
2022-11-10T09:24:53.561Z,99018.85
2022-11-10T09:26:13.781Z,99024.15
2022-11-10T09:27:38.676Z,99028.92
2022-11-10T09:28:59.067Z,99034.51
2022-11-10T09:30:19.758Z,99033.27
2022-11-10T09:31:40.186Z,99037.11
2022-11-10T09:33:00.970Z,99039.33
2022-11-10T09:34:21.332Z,99038.55
2022-11-10T09:35:41.600Z,99039.73
2022-11-10T09:37:01.767Z,99041.10
2022-11-10T09:38:22.249Z,99039.88
2022-11-10T09:39:42.948Z,99040.17
2022-11-10T09:41:09.279Z,99040.04
2022-11-10T09:42:41.651Z,99043.67
2022-11-10T09:44:27.021Z,99045.58
2022-11-10T09:45:54.512Z,99048.02
2022-11-10T09:47:50.730Z,99052.23
2022-11-10T09:49:23.866Z,99044.33
2022-11-10T09:50:54.122Z,99044.66
2022-11-10T09:52:18.483Z,99048.38
2022-11-10T09:53:44.825Z,99052.23
2022-11-10T09:55:29.789Z,99050.42
2022-11-10T09:56:53.628Z,99052.64
2022-11-10T09:58:14.932Z,99054.00
2022-11-10T09:59:36.905Z,99056.75
2022-11-10T10:01:15.227Z,99055.02
2022-11-10T10:02:48.594Z,99061.07
2022-11-10T10:04:51.492Z,99063.64
2022-11-10T10:06:16.820Z,99068.11
2022-11-10T10:07:59.613Z,99071.94
2022-11-10T10:09:36.478Z,99069.39
2022-11-10T10:11:35.349Z,99071.98
2022-11-10T10:13:16.655Z,99075.30
2022-11-10T10:15:07.897Z,99078.42
2022-11-10T10:16:51.895Z,99078.25
2022-11-10T10:18:18.043Z,99085.77
2022-11-10T10:19:51.088Z,99082.90
2022-11-10T10:21:38.262Z,99082.46
2022-11-10T10:23:16.328Z,99087.77
2022-11-10T10:24:38.206Z,99086.02
2022-11-10T10:25:58.626Z,99087.13
2022-11-10T10:27:25.953Z,99085.95
2022-11-10T10:28:48.379Z,99087.06
2022-11-10T10:30:14.917Z,99091.51
2022-11-10T10:31:42.005Z,99090.59
2022-11-10T10:33:20.234Z,99091.09
2022-11-10T10:34:43.505Z,99091.59
2022-11-10T10:36:10.091Z,99089.25
2022-11-10T10:37:40.535Z,99096.55
2022-11-10T10:39:06.454Z,99095.24
2022-11-10T10:40:27.469Z,99096.80
2022-11-10T10:41:47.929Z,99101.35
2022-11-10T10:43:08.135Z,99102.86
2022-11-10T10:44:28.703Z,99105.19
2022-11-10T10:46:11.846Z,99103.06
2022-11-10T10:47:39.953Z,99104.59
2022-11-10T10:49:31.441Z,99108.64
2022-11-10T10:50:52.186Z,99103.19
2022-11-10T10:52:18.190Z,99105.55
2022-11-10T10:53:48.277Z,99102.63
2022-11-10T10:55:09.735Z,99098.80
2022-11-10T10:56:33.379Z,99101.56
2022-11-10T10:58:05.409Z,99100.75
2022-11-10T10:59:25.842Z,99101.61
2022-11-10T11:00:49.385Z,99100.48
2022-11-10T11:02:32.075Z,99098.80
2022-11-10T11:03:53.219Z,99093.05
2022-11-10T11:05:17.488Z,99099.38
2022-11-10T11:06:37.761Z,99100.11
2022-11-10T11:08:02.009Z,99103.70
2022-11-10T11:09:28.964Z,99102.02
2022-11-10T11:10:49.495Z,99105.33
2022-11-10T11:12:17.544Z,99107.40
2022-11-10T11:13:37.987Z,99104.30
2022-11-10T11:15:14.381Z,99108.69
2022-11-10T11:16:56.791Z,99110.58
2022-11-10T11:18:19.337Z,99111.57
2022-11-10T11:19:40.537Z,99111.58
2022-11-10T11:21:18.939Z,99119.58
2022-11-10T11:23:01.014Z,99115.59
2022-11-10T11:24:34.761Z,99113.16
2022-11-10T11:26:10.737Z,99110.57
2022-11-10T11:28:03.920Z,99113.79
2022-11-10T11:29:35.078Z,99116.75
2022-11-10T11:31:05.934Z,99117.45
2022-11-10T11:33:05.104Z,99124.10
2022-11-10T11:34:37.000Z,99119.52
2022-11-10T11:36:14.803Z,99121.75
2022-11-10T11:38:12.935Z,99121.44
2022-11-10T11:39:47.840Z,99126.59
2022-11-10T11:41:16.966Z,99124.16
2022-11-10T11:43:08.061Z,99124.38
2022-11-10T11:44:49.964Z,99128.38
2022-11-10T11:46:35.467Z,99126.12
2022-11-10T11:48:22.375Z,99128.67
2022-11-10T11:50:14.704Z,99126.54
2022-11-10T11:51:59.678Z,99125.38
2022-11-10T11:53:37.862Z,99124.91
2022-11-10T11:55:36.859Z,99124.90
2022-11-10T11:57:20.500Z,99129.41
2022-11-10T11:58:55.398Z,99128.46
2022-11-10T12:00:19.072Z,99126.80
2022-11-10T12:02:02.852Z,99128.50
2022-11-10T12:03:40.304Z,99126.66
2022-11-10T12:05:44.008Z,99129.05
2022-11-10T12:07:27.624Z,99130.90
2022-11-10T12:08:59.351Z,99135.61
2022-11-10T12:10:44.881Z,99138.63
2022-11-10T12:12:56.271Z,99140.34
2022-11-10T12:14:36.961Z,99142.52
2022-11-10T12:16:21.288Z,99138.66
2022-11-10T12:18:07.358Z,99135.90
2022-11-10T12:19:56.815Z,99137.98
2022-11-10T12:21:23.871Z,99145.52
2022-11-10T12:23:01.271Z,99149.41
2022-11-10T12:24:48.952Z,99150.16
2022-11-10T12:26:31.808Z,99153.61
2022-11-10T12:28:24.006Z,99159.23
2022-11-10T12:29:56.145Z,99156.27
2022-11-10T12:31:23.426Z,99162.27
2022-11-10T12:33:16.243Z,99166.21
2022-11-10T12:34:36.318Z,99171.88
2022-11-10T12:36:00.976Z,99171.73
2022-11-10T12:37:35.950Z,99173.15
2022-11-10T12:39:18.139Z,99171.83
2022-11-10T12:40:50.487Z,99170.64
2022-11-10T12:42:22.976Z,99167.14
2022-11-10T12:43:52.422Z,99171.27
2022-11-10T12:45:22.953Z,99169.52
2022-11-10T12:46:49.550Z,99171.59
2022-11-10T12:48:16.010Z,99173.98
2022-11-10T12:49:41.859Z,99173.45
2022-11-10T12:51:16.110Z,99176.06
2022-11-10T12:52:47.629Z,99176.73
2022-11-10T12:54:16.859Z,99178.70
2022-11-10T12:55:48.422Z,99191.35
2022-11-10T12:57:20.244Z,99197.23
2022-11-10T12:58:41.210Z,99191.63
2022-11-10T13:00:28.066Z,99194.15
2022-11-10T13:01:56.585Z,99193.82
2022-11-10T13:03:37.221Z,99194.05
2022-11-10T13:05:31.828Z,99191.33
2022-11-10T13:06:57.222Z,99202.40
2022-11-10T13:08:46.970Z,99204.69
2022-11-10T13:10:34.490Z,99199.68
2022-11-10T13:12:14.108Z,99205.89
2022-11-10T13:13:52.202Z,99207.30
2022-11-10T13:15:37.718Z,99207.82
2022-11-10T13:16:58.915Z,99208.80
2022-11-10T13:18:31.434Z,99210.73
2022-11-10T13:19:53.766Z,99206.65
2022-11-10T13:21:14.316Z,99210.48
2022-11-10T13:22:40.973Z,99210.59
2022-11-10T13:24:02.626Z,99211.88
2022-11-10T13:25:37.994Z,99213.77
2022-11-10T13:27:03.007Z,99219.27
2022-11-10T13:28:48.266Z,99217.64
2022-11-10T13:30:10.052Z,99218.47
2022-11-10T13:31:31.197Z,99222.38
2022-11-10T13:32:51.773Z,99222.44
2022-11-10T13:34:30.800Z,99226.17
2022-11-10T13:35:55.503Z,99225.45
2022-11-10T13:37:34.333Z,99226.36
2022-11-10T13:38:55.679Z,99226.06
2022-11-10T13:40:25.165Z,99233.89
2022-11-10T13:41:51.217Z,99236.14
2022-11-10T13:43:24.658Z,99241.43
2022-11-10T13:44:48.446Z,99239.58
2022-11-10T13:46:09.080Z,99241.81
2022-11-10T13:47:55.118Z,99243.80
2022-11-10T13:49:45.616Z,99245.18
2022-11-10T13:51:27.214Z,99249.52
2022-11-10T13:53:09.168Z,99250.95
2022-11-10T13:54:49.651Z,99252.48
2022-11-10T13:56:25.080Z,99256.61
2022-11-10T13:58:04.883Z,99256.32
2022-11-10T13:59:28.479Z,99254.05
2022-11-10T14:01:10.786Z,99254.61
2022-11-10T14:02:36.506Z,99256.36
2022-11-10T14:04:00.563Z,99257.55
2022-11-10T14:05:29.814Z,99259.00
2022-11-10T14:06:54.975Z,99262.69
2022-11-10T14:08:25.273Z,99266.14
2022-11-10T14:09:50.659Z,99267.02
2022-11-10T14:11:24.273Z,99265.65
2022-11-10T14:12:50.870Z,99267.77
2022-11-10T14:14:20.968Z,99271.48
2022-11-10T14:15:45.337Z,99279.45
2022-11-10T14:17:19.407Z,99283.92
2022-11-10T14:18:47.022Z,99288.40
2022-11-10T14:20:24.530Z,99296.25
2022-11-10T14:21:56.876Z,99291.17
2022-11-10T14:23:25.930Z,99295.23
2022-11-10T14:24:59.722Z,99294.80
2022-11-10T14:26:38.727Z,99302.25
2022-11-10T14:27:59.138Z,99294.58
2022-11-10T14:29:32.199Z,99296.45
2022-11-10T14:30:56.987Z,99295.37
2022-11-10T14:32:25.011Z,99300.55
2022-11-10T14:33:55.031Z,99302.48
2022-11-10T14:35:29.037Z,99306.20
2022-11-10T14:37:02.362Z,99305.48
2022-11-10T14:38:29.453Z,99307.70
2022-11-10T14:39:57.135Z,99313.33
2022-11-10T14:41:22.874Z,99317.70
2022-11-10T14:42:46.790Z,99319.11
2022-11-10T14:44:12.887Z,99318.62
2022-11-10T14:45:33.003Z,99320.28
2022-11-10T14:46:54.810Z,99318.08
2022-11-10T14:48:21.953Z,99319.44
2022-11-10T14:49:43.865Z,99323.38
2022-11-10T14:51:18.355Z,99325.00
2022-11-10T14:52:41.612Z,99328.95
2022-11-10T14:54:02.780Z,99330.02
2022-11-10T14:55:28.745Z,99329.16
2022-11-10T14:56:49.500Z,99323.73
2022-11-10T14:58:16.084Z,99330.30
2022-11-10T14:59:37.794Z,99332.17
2022-11-10T15:00:58.309Z,99333.77
2022-11-10T15:02:19.675Z,99335.69
2022-11-10T15:03:43.042Z,99336.98
2022-11-10T15:05:04.385Z,99337.36
2022-11-10T15:06:25.464Z,99342.17
2022-11-10T15:07:46.803Z,99348.02
2022-11-10T15:09:16.083Z,99347.70
2022-11-10T15:10:39.342Z,99350.30
2022-11-10T15:12:23.520Z,99354.61
2022-11-10T15:13:43.960Z,99357.13
2022-11-10T15:15:19.718Z,99362.89
2022-11-10T15:17:00.820Z,99364.51
2022-11-10T15:18:27.495Z,99368.13
2022-11-10T15:19:48.603Z,99373.95
2022-11-10T15:21:13.104Z,99375.02
2022-11-10T15:22:37.243Z,99374.98
2022-11-10T15:24:02.182Z,99375.42
2022-11-10T15:25:24.464Z,99377.20
2022-11-10T15:26:45.677Z,99378.45
2022-11-10T15:28:12.146Z,99379.66
2022-11-10T15:29:33.813Z,99380.38
2022-11-10T15:31:16.332Z,99379.02
2022-11-10T15:32:45.836Z,99385.30
2022-11-10T15:34:06.035Z,99387.80
2022-11-10T15:35:31.832Z,99389.39
2022-11-10T15:37:30.281Z,99389.20
2022-11-10T15:39:06.715Z,99391.73
2022-11-10T15:40:45.767Z,99392.20
2022-11-10T15:42:24.184Z,99396.98
2022-11-10T15:43:44.419Z,99392.96
2022-11-10T15:45:05.107Z,99395.45
2022-11-10T15:46:27.065Z,99395.73
2022-11-10T15:47:47.437Z,99396.77
2022-11-10T15:49:22.447Z,99398.41
2022-11-10T15:50:46.413Z,99400.43
2022-11-10T15:52:13.118Z,99406.83
2022-11-10T15:53:38.941Z,99406.48
2022-11-10T15:54:59.390Z,99410.89
2022-11-10T15:56:23.036Z,99415.32
2022-11-10T15:57:43.225Z,99414.59
2022-11-10T15:59:03.659Z,99417.70
2022-11-10T16:00:24.288Z,99420.78
2022-11-10T16:01:44.595Z,99421.73
2022-11-10T16:03:05.066Z,99427.01
2022-11-10T16:04:27.425Z,99427.73
2022-11-10T16:05:48.457Z,99432.00
2022-11-10T16:07:09.062Z,99433.86
2022-11-10T16:08:32.173Z,99435.74
2022-11-10T16:09:52.550Z,99440.79
2022-11-10T16:11:21.780Z,99447.34
2022-11-10T16:12:42.078Z,99450.84
2022-11-10T16:14:05.017Z,99451.83
2022-11-10T16:15:25.674Z,99457.41
2022-11-10T16:16:46.297Z,99460.65
2022-11-10T16:18:13.753Z,99466.89
2022-11-10T16:19:35.647Z,99468.79
2022-11-10T16:20:57.072Z,99475.06
2022-11-10T16:22:17.290Z,99480.20
2022-11-10T16:23:37.983Z,99482.94
2022-11-10T16:24:58.255Z,99485.96
2022-11-10T16:26:25.786Z,99488.51
2022-11-10T16:27:46.492Z,99493.31
2022-11-10T16:29:13.815Z,99496.34
2022-11-10T16:30:34.540Z,99498.74
2022-11-10T16:31:54.871Z,99500.89
2022-11-10T16:33:17.387Z,99499.80
2022-11-10T16:34:37.564Z,99507.27
2022-11-10T16:35:57.993Z,99508.56
2022-11-10T16:37:18.991Z,99513.81
2022-11-10T16:38:39.494Z,99517.65
2022-11-10T16:39:59.734Z,99516.40
2022-11-10T16:41:20.822Z,99519.25
2022-11-10T16:42:42.030Z,99519.35